sensor_id;sensor_type;location;lat;lon;timestamp;temperature;humidity
66934;DHT22;53846;51.984;5.890;2022-09-21T00:01:51;15.30;58.80
66934;DHT22;53846;51.984;5.890;2022-09-21T00:04:20;15.30;58.80
66934;DHT22;53846;51.984;5.890;2022-09-21T00:06:49;15.30;58.80
66934;DHT22;53846;51.984;5.890;2022-09-21T00:09:19;15.20;58.80
66934;DHT22;53846;51.984;5.890;2022-09-21T00:11:51;15.20;58.90
66934;DHT22;53846;51.984;5.890;2022-09-21T00:14:20;15.20;58.90
66934;DHT22;53846;51.984;5.890;2022-09-21T00:16:50;15.30;59.00
66934;DHT22;53846;51.984;5.890;2022-09-21T00:19:20;15.20;59.10
66934;DHT22;53846;51.984;5.890;2022-09-21T00:21:53;15.20;59.00
66934;DHT22;53846;51.984;5.890;2022-09-21T00:24:22;15.20;59.00
66934;DHT22;53846;51.984;5.890;2022-09-21T00:26:55;15.20;58.90
66934;DHT22;53846;51.984;5.890;2022-09-21T00:29:25;15.20;58.90
66934;DHT22;53846;51.984;5.890;2022-09-21T00:31:54;15.30;59.00
66934;DHT22;53846;51.984;5.890;2022-09-21T00:34:26;15.10;59.00
66934;DHT22;53846;51.984;5.890;2022-09-21T00:36:55;15.10;59.10
66934;DHT22;53846;51.984;5.890;2022-09-21T00:39:25;15.10;59.20
66934;DHT22;53846;51.984;5.890;2022-09-21T00:41:57;15.10;59.20
66934;DHT22;53846;51.984;5.890;2022-09-21T00:44:31;15.10;59.20
66934;DHT22;53846;51.984;5.890;2022-09-21T00:47:05;15.10;59.30
66934;DHT22;53846;51.984;5.890;2022-09-21T00:49:36;15.30;59.60
66934;DHT22;53846;51.984;5.890;2022-09-21T00:52:06;15.10;59.30
66934;DHT22;53846;51.984;5.890;2022-09-21T00:54:40;15.00;59.40
66934;DHT22;53846;51.984;5.890;2022-09-21T00:57:13;14.80;59.40
66934;DHT22;53846;51.984;5.890;2022-09-21T00:59:44;15.10;59.60
66934;DHT22;53846;51.984;5.890;2022-09-21T01:02:13;15.00;59.70
66934;DHT22;53846;51.984;5.890;2022-09-21T01:04:43;15.10;59.90
66934;DHT22;53846;51.984;5.890;2022-09-21T01:07:17;15.00;59.90
66934;DHT22;53846;51.984;5.890;2022-09-21T01:09:50;14.90;59.90
66934;DHT22;53846;51.984;5.890;2022-09-21T01:12:33;15.00;59.90
66934;DHT22;53846;51.984;5.890;2022-09-21T01:15:18;15.10;60.20
66934;DHT22;53846;51.984;5.890;2022-09-21T01:17:54;14.80;60.20
66934;DHT22;53846;51.984;5.890;2022-09-21T01:20:37;14.90;60.30
66934;DHT22;53846;51.984;5.890;2022-09-21T01:23:20;14.90;60.20
66934;DHT22;53846;51.984;5.890;2022-09-21T01:26:01;14.90;60.20
66934;DHT22;53846;51.984;5.890;2022-09-21T01:28:58;14.70;60.10
66934;DHT22;53846;51.984;5.890;2022-09-21T01:31:32;14.60;60.10
66934;DHT22;53846;51.984;5.890;2022-09-21T01:34:07;14.90;60.20
66934;DHT22;53846;51.984;5.890;2022-09-21T01:36:40;14.90;60.30
66934;DHT22;53846;51.984;5.890;2022-09-21T01:39:13;14.70;60.10
66934;DHT22;53846;51.984;5.890;2022-09-21T01:41:46;14.50;60.00
66934;DHT22;53846;51.984;5.890;2022-09-21T01:44:22;14.80;60.30
66934;DHT22;53846;51.984;5.890;2022-09-21T01:46:53;14.60;60.20
66934;DHT22;53846;51.984;5.890;2022-09-21T01:49:27;14.50;60.00
66934;DHT22;53846;51.984;5.890;2022-09-21T01:52:06;14.50;60.20
66934;DHT22;53846;51.984;5.890;2022-09-21T01:54:41;14.70;60.50
66934;DHT22;53846;51.984;5.890;2022-09-21T01:57:15;14.40;60.20
66934;DHT22;53846;51.984;5.890;2022-09-21T01:59:51;14.70;60.30
66934;DHT22;53846;51.984;5.890;2022-09-21T02:02:27;14.50;60.40
66934;DHT22;53846;51.984;5.890;2022-09-21T02:04:58;14.40;60.50
66934;DHT22;53846;51.984;5.890;2022-09-21T02:07:28;14.50;60.60
66934;DHT22;53846;51.984;5.890;2022-09-21T02:09:57;14.40;60.50
66934;DHT22;53846;51.984;5.890;2022-09-21T02:12:28;14.40;60.60
66934;DHT22;53846;51.984;5.890;2022-09-21T02:15:01;14.20;60.50
66934;DHT22;53846;51.984;5.890;2022-09-21T02:17:35;14.50;61.00
66934;DHT22;53846;51.984;5.890;2022-09-21T02:20:15;14.20;60.80
66934;DHT22;53846;51.984;5.890;2022-09-21T02:22:58;14.20;60.80
66934;DHT22;53846;51.984;5.890;2022-09-21T02:25:36;14.40;61.00
66934;DHT22;53846;51.984;5.890;2022-09-21T02:28:11;14.40;61.10
66934;DHT22;53846;51.984;5.890;2022-09-21T02:30:52;14.40;61.10
66934;DHT22;53846;51.984;5.890;2022-09-21T02:33:25;14.40;61.10
66934;DHT22;53846;51.984;5.890;2022-09-21T02:36:03;14.30;61.10
66934;DHT22;53846;51.984;5.890;2022-09-21T02:38:37;14.00;61.00
66934;DHT22;53846;51.984;5.890;2022-09-21T02:41:12;14.00;61.00
66934;DHT22;53846;51.984;5.890;2022-09-21T02:43:45;14.00;61.10
66934;DHT22;53846;51.984;5.890;2022-09-21T02:46:24;14.00;61.10
66934;DHT22;53846;51.984;5.890;2022-09-21T02:48:57;13.90;61.30
66934;DHT22;53846;51.984;5.890;2022-09-21T02:51:30;13.90;61.20
66934;DHT22;53846;51.984;5.890;2022-09-21T02:54:02;13.90;61.10
66934;DHT22;53846;51.984;5.890;2022-09-21T02:56:33;13.80;61.10
66934;DHT22;53846;51.984;5.890;2022-09-21T02:59:04;13.70;61.30
66934;DHT22;53846;51.984;5.890;2022-09-21T03:01:39;13.50;61.20
66934;DHT22;53846;51.984;5.890;2022-09-21T03:04:09;13.70;61.30
66934;DHT22;53846;51.984;5.890;2022-09-21T03:06:38;13.70;61.30
66934;DHT22;53846;51.984;5.890;2022-09-21T03:09:07;13.60;61.30
66934;DHT22;53846;51.984;5.890;2022-09-21T03:11:37;13.60;61.30
66934;DHT22;53846;51.984;5.890;2022-09-21T03:14:07;13.60;61.50
66934;DHT22;53846;51.984;5.890;2022-09-21T03:16:39;13.50;61.60
66934;DHT22;53846;51.984;5.890;2022-09-21T03:19:09;13.50;61.60
66934;DHT22;53846;51.984;5.890;2022-09-21T03:21:39;13.50;61.50
66934;DHT22;53846;51.984;5.890;2022-09-21T03:24:08;13.70;61.70
66934;DHT22;53846;51.984;5.890;2022-09-21T03:26:37;13.40;61.50
66934;DHT22;53846;51.984;5.890;2022-09-21T03:29:08;13.40;61.50
66934;DHT22;53846;51.984;5.890;2022-09-21T03:31:40;13.30;61.50
66934;DHT22;53846;51.984;5.890;2022-09-21T03:34:09;13.20;61.70
66934;DHT22;53846;51.984;5.890;2022-09-21T03:36:39;13.20;61.70
66934;DHT22;53846;51.984;5.890;2022-09-21T03:39:08;13.30;61.90
66934;DHT22;53846;51.984;5.890;2022-09-21T03:41:37;13.30;61.80
66934;DHT22;53846;51.984;5.890;2022-09-21T03:44:06;13.30;61.90
66934;DHT22;53846;51.984;5.890;2022-09-21T03:46:36;13.30;62.00
66934;DHT22;53846;51.984;5.890;2022-09-21T03:49:07;13.20;61.80
66934;DHT22;53846;51.984;5.890;2022-09-21T03:51:36;13.30;62.00
66934;DHT22;53846;51.984;5.890;2022-09-21T03:54:06;13.20;61.90
66934;DHT22;53846;51.984;5.890;2022-09-21T03:56:35;13.30;62.00
66934;DHT22;53846;51.984;5.890;2022-09-21T03:59:05;12.90;61.80
66934;DHT22;53846;51.984;5.890;2022-09-21T04:01:34;13.20;62.60
66934;DHT22;53846;51.984;5.890;2022-09-21T04:04:03;13.20;62.00
66934;DHT22;53846;51.984;5.890;2022-09-21T04:06:35;13.00;62.10
66934;DHT22;53846;51.984;5.890;2022-09-21T04:09:06;13.10;62.30
66934;DHT22;53846;51.984;5.890;2022-09-21T04:11:36;13.30;62.40
66934;DHT22;53846;51.984;5.890;2022-09-21T04:14:05;13.10;62.40
66934;DHT22;53846;51.984;5.890;2022-09-21T04:16:34;13.20;62.30
66934;DHT22;53846;51.984;5.890;2022-09-21T04:19:04;12.90;62.20
66934;DHT22;53846;51.984;5.890;2022-09-21T04:21:35;13.10;62.20
66934;DHT22;53846;51.984;5.890;2022-09-21T04:24:05;13.00;62.30
66934;DHT22;53846;51.984;5.890;2022-09-21T04:26:35;12.80;62.30
66934;DHT22;53846;51.984;5.890;2022-09-21T04:29:06;13.10;62.50
66934;DHT22;53846;51.984;5.890;2022-09-21T04:31:36;12.90;65.10
66934;DHT22;53846;51.984;5.890;2022-09-21T04:34:05;12.80;64.30
66934;DHT22;53846;51.984;5.890;2022-09-21T04:36:37;13.00;63.80
66934;DHT22;53846;51.984;5.890;2022-09-21T04:39:06;12.70;63.20
66934;DHT22;53846;51.984;5.890;2022-09-21T04:41:36;13.10;63.10
66934;DHT22;53846;51.984;5.890;2022-09-21T04:44:05;13.10;63.60
66934;DHT22;53846;51.984;5.890;2022-09-21T04:46:34;13.10;62.90
66934;DHT22;53846;51.984;5.890;2022-09-21T04:49:03;12.90;62.80
66934;DHT22;53846;51.984;5.890;2022-09-21T04:51:33;12.90;62.80
66934;DHT22;53846;51.984;5.890;2022-09-21T04:54:05;12.90;62.80
66934;DHT22;53846;51.984;5.890;2022-09-21T04:56:35;13.10;62.90
66934;DHT22;53846;51.984;5.890;2022-09-21T04:59:04;12.70;62.80
66934;DHT22;53846;51.984;5.890;2022-09-21T05:01:34;12.90;63.00
66934;DHT22;53846;51.984;5.890;2022-09-21T05:04:03;12.80;63.00
66934;DHT22;53846;51.984;5.890;2022-09-21T05:06:33;13.10;63.40
66934;DHT22;53846;51.984;5.890;2022-09-21T05:09:05;12.70;63.10
66934;DHT22;53846;51.984;5.890;2022-09-21T05:11:47;12.90;63.30
66934;DHT22;53846;51.984;5.890;2022-09-21T05:14:17;12.80;63.30
66934;DHT22;53846;51.984;5.890;2022-09-21T05:16:46;12.60;63.30
66934;DHT22;53846;51.984;5.890;2022-09-21T05:19:15;12.70;63.30
66934;DHT22;53846;51.984;5.890;2022-09-21T05:21:45;12.70;63.40
66934;DHT22;53846;51.984;5.890;2022-09-21T05:24:17;12.70;63.30
66934;DHT22;53846;51.984;5.890;2022-09-21T05:26:46;12.70;63.40
66934;DHT22;53846;51.984;5.890;2022-09-21T05:29:16;12.70;63.50
66934;DHT22;53846;51.984;5.890;2022-09-21T05:31:47;12.70;63.50
66934;DHT22;53846;51.984;5.890;2022-09-21T05:34:26;12.70;63.70
66934;DHT22;53846;51.984;5.890;2022-09-21T05:37:00;12.70;63.80
66934;DHT22;53846;51.984;5.890;2022-09-21T05:39:34;12.70;63.90
66934;DHT22;53846;51.984;5.890;2022-09-21T05:42:04;12.60;66.40
66934;DHT22;53846;51.984;5.890;2022-09-21T05:44:34;12.70;65.80
66934;DHT22;53846;51.984;5.890;2022-09-21T05:47:09;12.90;65.20
66934;DHT22;53846;51.984;5.890;2022-09-21T05:49:48;13.00;64.80
66934;DHT22;53846;51.984;5.890;2022-09-21T05:52:24;13.00;64.60
66934;DHT22;53846;51.984;5.890;2022-09-21T05:55:05;13.30;64.50
66934;DHT22;53846;51.984;5.890;2022-09-21T05:57:43;13.10;64.30
66934;DHT22;53846;51.984;5.890;2022-09-21T06:00:17;13.30;64.50
66934;DHT22;53846;51.984;5.890;2022-09-21T06:03:01;13.00;64.20
66934;DHT22;53846;51.984;5.890;2022-09-21T06:05:33;13.20;64.30
66934;DHT22;53846;51.984;5.890;2022-09-21T06:08:02;13.20;64.30
66934;DHT22;53846;51.984;5.890;2022-09-21T06:10:34;13.20;64.30
66934;DHT22;53846;51.984;5.890;2022-09-21T06:13:03;13.00;64.20
66934;DHT22;53846;51.984;5.890;2022-09-21T06:15:34;13.30;64.50
66934;DHT22;53846;51.984;5.890;2022-09-21T06:18:03;13.30;64.60
66934;DHT22;53846;51.984;5.890;2022-09-21T06:20:33;13.40;64.70
66934;DHT22;53846;51.984;5.890;2022-09-21T06:23:03;13.40;64.80
66934;DHT22;53846;51.984;5.890;2022-09-21T06:25:35;13.20;64.60
66934;DHT22;53846;51.984;5.890;2022-09-21T06:28:06;13.50;64.70
66934;DHT22;53846;51.984;5.890;2022-09-21T06:30:36;13.40;64.70
66934;DHT22;53846;51.984;5.890;2022-09-21T06:33:07;13.80;65.00
66934;DHT22;53846;51.984;5.890;2022-09-21T06:35:37;13.40;64.80
66934;DHT22;53846;51.984;5.890;2022-09-21T06:38:07;13.70;65.20
66934;DHT22;53846;51.984;5.890;2022-09-21T06:40:38;14.10;65.40
66934;DHT22;53846;51.984;5.890;2022-09-21T06:43:08;13.90;65.60
66934;DHT22;53846;51.984;5.890;2022-09-21T06:45:37;14.00;65.50
66934;DHT22;53846;51.984;5.890;2022-09-21T06:48:06;14.10;65.50
66934;DHT22;53846;51.984;5.890;2022-09-21T06:50:35;14.10;65.90
66934;DHT22;53846;51.984;5.890;2022-09-21T06:53:05;14.30;67.00
66934;DHT22;53846;51.984;5.890;2022-09-21T06:55:34;14.40;67.00
66934;DHT22;53846;51.984;5.890;2022-09-21T06:58:06;14.50;67.30
66934;DHT22;53846;51.984;5.890;2022-09-21T07:00:35;14.50;67.50
66934;DHT22;53846;51.984;5.890;2022-09-21T07:03:04;14.90;67.70
66934;DHT22;53846;51.984;5.890;2022-09-21T07:05:33;15.10;67.70
66934;DHT22;53846;51.984;5.890;2022-09-21T07:08:03;15.50;68.00
66934;DHT22;53846;51.984;5.890;2022-09-21T07:10:32;15.70;67.90
66934;DHT22;53846;51.984;5.890;2022-09-21T07:13:02;15.60;67.90
66934;DHT22;53846;51.984;5.890;2022-09-21T07:15:34;15.60;67.80
66934;DHT22;53846;51.984;5.890;2022-09-21T07:18:10;16.20;67.80
66934;DHT22;53846;51.984;5.890;2022-09-21T07:20:40;16.40;67.70
66934;DHT22;53846;51.984;5.890;2022-09-21T07:23:10;16.90;68.20
66934;DHT22;53846;51.984;5.890;2022-09-21T07:25:40;16.80;66.90
66934;DHT22;53846;51.984;5.890;2022-09-21T07:28:10;17.10;66.40
66934;DHT22;53846;51.984;5.890;2022-09-21T07:30:42;17.50;66.10
66934;DHT22;53846;51.984;5.890;2022-09-21T07:33:11;17.70;64.40
66934;DHT22;53846;51.984;5.890;2022-09-21T07:35:49;17.60;63.50
66934;DHT22;53846;51.984;5.890;2022-09-21T07:38:19;17.90;62.60
66934;DHT22;53846;51.984;5.890;2022-09-21T07:40:48;18.30;61.60
66934;DHT22;53846;51.984;5.890;2022-09-21T07:43:17;18.30;60.40
66934;DHT22;53846;51.984;5.890;2022-09-21T07:45:54;18.70;60.70
66934;DHT22;53846;51.984;5.890;2022-09-21T07:48:23;18.60;60.40
66934;DHT22;53846;51.984;5.890;2022-09-21T07:50:54;18.90;60.40
66934;DHT22;53846;51.984;5.890;2022-09-21T07:53:24;19.00;59.20
66934;DHT22;53846;51.984;5.890;2022-09-21T07:55:59;18.90;57.60
66934;DHT22;53846;51.984;5.890;2022-09-21T07:58:29;19.50;57.90
66934;DHT22;53846;51.984;5.890;2022-09-21T08:01:13;19.50;58.00
66934;DHT22;53846;51.984;5.890;2022-09-21T08:03:43;19.80;57.70
66934;DHT22;53846;51.984;5.890;2022-09-21T08:06:12;20.30;57.20
66934;DHT22;53846;51.984;5.890;2022-09-21T08:08:41;20.10;56.90
66934;DHT22;53846;51.984;5.890;2022-09-21T08:11:13;20.40;56.40
66934;DHT22;53846;51.984;5.890;2022-09-21T08:13:43;20.60;56.20
66934;DHT22;53846;51.984;5.890;2022-09-21T08:16:16;20.70;55.70
66934;DHT22;53846;51.984;5.890;2022-09-21T08:18:45;21.00;55.00
66934;DHT22;53846;51.984;5.890;2022-09-21T08:21:15;21.20;54.50
66934;DHT22;53846;51.984;5.890;2022-09-21T08:23:45;21.60;54.50
66934;DHT22;53846;51.984;5.890;2022-09-21T08:26:16;21.40;52.40
66934;DHT22;53846;51.984;5.890;2022-09-21T08:28:48;21.70;52.20
66934;DHT22;53846;51.984;5.890;2022-09-21T08:31:22;21.60;50.90
66934;DHT22;53846;51.984;5.890;2022-09-21T08:33:53;21.90;50.90
66934;DHT22;53846;51.984;5.890;2022-09-21T08:36:23;22.10;50.50
66934;DHT22;53846;51.984;5.890;2022-09-21T08:38:52;22.20;50.50
66934;DHT22;53846;51.984;5.890;2022-09-21T08:41:31;22.40;50.40
66934;DHT22;53846;51.984;5.890;2022-09-21T08:44:09;22.60;50.10
66934;DHT22;53846;51.984;5.890;2022-09-21T08:46:42;22.80;50.20
66934;DHT22;53846;51.984;5.890;2022-09-21T08:49:15;23.10;49.80
66934;DHT22;53846;51.984;5.890;2022-09-21T08:51:50;23.10;49.10
66934;DHT22;53846;51.984;5.890;2022-09-21T08:54:24;23.60;48.80
66934;DHT22;53846;51.984;5.890;2022-09-21T08:56:55;23.50;48.40
66934;DHT22;53846;51.984;5.890;2022-09-21T08:59:25;23.80;48.00
66934;DHT22;53846;51.984;5.890;2022-09-21T09:02:03;24.20;47.30
66934;DHT22;53846;51.984;5.890;2022-09-21T09:04:51;24.50;47.00
66934;DHT22;53846;51.984;5.890;2022-09-21T09:07:36;24.50;46.30
66934;DHT22;53846;51.984;5.890;2022-09-21T09:10:24;24.70;46.00
66934;DHT22;53846;51.984;5.890;2022-09-21T09:13:05;24.80;45.50
66934;DHT22;53846;51.984;5.890;2022-09-21T09:15:53;25.20;45.10
66934;DHT22;53846;51.984;5.890;2022-09-21T09:18:33;25.70;45.00
66934;DHT22;53846;51.984;5.890;2022-09-21T09:21:11;25.60;43.70
66934;DHT22;53846;51.984;5.890;2022-09-21T09:23:45;25.70;42.90
66934;DHT22;53846;51.984;5.890;2022-09-21T09:26:20;25.80;42.90
66934;DHT22;53846;51.984;5.890;2022-09-21T09:28:53;25.90;42.10
66934;DHT22;53846;51.984;5.890;2022-09-21T09:31:27;25.90;41.80
66934;DHT22;53846;51.984;5.890;2022-09-21T09:34:02;26.20;41.10
66934;DHT22;53846;51.984;5.890;2022-09-21T09:36:40;26.40;41.10
66934;DHT22;53846;51.984;5.890;2022-09-21T09:39:13;26.50;40.50
66934;DHT22;53846;51.984;5.890;2022-09-21T09:42:10;26.70;40.40
66934;DHT22;53846;51.984;5.890;2022-09-21T09:45:07;26.80;40.20
66934;DHT22;53846;51.984;5.890;2022-09-21T09:47:46;26.70;39.90
66934;DHT22;53846;51.984;5.890;2022-09-21T09:50:26;27.00;38.90
66934;DHT22;53846;51.984;5.890;2022-09-21T09:53:01;27.10;39.60
66934;DHT22;53846;51.984;5.890;2022-09-21T09:55:36;27.20;39.20
66934;DHT22;53846;51.984;5.890;2022-09-21T09:58:15;27.50;38.40
66934;DHT22;53846;51.984;5.890;2022-09-21T10:00:45;27.50;37.80
66934;DHT22;53846;51.984;5.890;2022-09-21T10:03:18;27.90;38.50
66934;DHT22;53846;51.984;5.890;2022-09-21T10:05:50;27.90;38.20
66934;DHT22;53846;51.984;5.890;2022-09-21T10:08:29;27.90;37.00
66934;DHT22;53846;51.984;5.890;2022-09-21T10:10:58;28.10;36.90
66934;DHT22;53846;51.984;5.890;2022-09-21T10:13:29;28.10;36.50
66934;DHT22;53846;51.984;5.890;2022-09-21T10:16:01;28.20;35.90
66934;DHT22;53846;51.984;5.890;2022-09-21T10:18:34;28.20;35.70
66934;DHT22;53846;51.984;5.890;2022-09-21T10:21:15;28.20;36.00
66934;DHT22;53846;51.984;5.890;2022-09-21T10:23:47;28.30;36.00
66934;DHT22;53846;51.984;5.890;2022-09-21T10:26:18;28.50;35.70
66934;DHT22;53846;51.984;5.890;2022-09-21T10:28:55;28.60;35.40
66934;DHT22;53846;51.984;5.890;2022-09-21T10:31:26;28.80;34.90
66934;DHT22;53846;51.984;5.890;2022-09-21T10:34:06;28.90;33.80
66934;DHT22;53846;51.984;5.890;2022-09-21T10:36:48;29.00;32.30
66934;DHT22;53846;51.984;5.890;2022-09-21T10:39:22;28.50;32.80
66934;DHT22;53846;51.984;5.890;2022-09-21T10:41:55;27.80;33.40
66934;DHT22;53846;51.984;5.890;2022-09-21T10:44:27;27.80;34.30
66934;DHT22;53846;51.984;5.890;2022-09-21T10:47:12;27.80;34.80
66934;DHT22;53846;51.984;5.890;2022-09-21T10:49:44;28.00;35.30
66934;DHT22;53846;51.984;5.890;2022-09-21T10:52:20;28.10;35.00
66934;DHT22;53846;51.984;5.890;2022-09-21T10:54:53;28.40;35.40
66934;DHT22;53846;51.984;5.890;2022-09-21T10:57:25;28.60;34.00
66934;DHT22;53846;51.984;5.890;2022-09-21T10:59:55;28.80;33.90
66934;DHT22;53846;51.984;5.890;2022-09-21T11:02:43;29.00;34.00
66934;DHT22;53846;51.984;5.890;2022-09-21T11:05:14;29.20;33.90
66934;DHT22;53846;51.984;5.890;2022-09-21T11:07:51;29.50;33.60
66934;DHT22;53846;51.984;5.890;2022-09-21T11:10:29;29.60;31.80
66934;DHT22;53846;51.984;5.890;2022-09-21T11:13:08;29.80;31.40
66934;DHT22;53846;51.984;5.890;2022-09-21T11:15:48;29.80;31.60
66934;DHT22;53846;51.984;5.890;2022-09-21T11:18:23;30.20;31.90
66934;DHT22;53846;51.984;5.890;2022-09-21T11:20:57;30.30;31.60
66934;DHT22;53846;51.984;5.890;2022-09-21T11:23:40;30.60;30.10
66934;DHT22;53846;51.984;5.890;2022-09-21T11:26:18;30.70;30.70
66934;DHT22;53846;51.984;5.890;2022-09-21T11:28:55;30.80;30.20
66934;DHT22;53846;51.984;5.890;2022-09-21T11:31:51;30.80;30.20
66934;DHT22;53846;51.984;5.890;2022-09-21T11:34:44;31.10;29.80
66934;DHT22;53846;51.984;5.890;2022-09-21T11:37:26;31.10;30.30
66934;DHT22;53846;51.984;5.890;2022-09-21T11:40:10;30.50;30.10
66934;DHT22;53846;51.984;5.890;2022-09-21T11:42:51;29.80;30.00
66934;DHT22;53846;51.984;5.890;2022-09-21T11:45:43;29.50;30.60
66934;DHT22;53846;51.984;5.890;2022-09-21T11:48:20;29.10;31.20
66934;DHT22;53846;51.984;5.890;2022-09-21T11:51:00;28.60;31.80
66934;DHT22;53846;51.984;5.890;2022-09-21T11:53:43;28.20;32.30
66934;DHT22;53846;51.984;5.890;2022-09-21T11:56:33;27.80;32.50
66934;DHT22;53846;51.984;5.890;2022-09-21T11:59:37;27.50;32.80
66934;DHT22;53846;51.984;5.890;2022-09-21T12:02:28;27.10;32.90
66934;DHT22;53846;51.984;5.890;2022-09-21T12:05:03;26.70;32.40
66934;DHT22;53846;51.984;5.890;2022-09-21T12:07:57;26.40;32.50
66934;DHT22;53846;51.984;5.890;2022-09-21T12:10:40;26.10;33.70
66934;DHT22;53846;51.984;5.890;2022-09-21T12:13:22;26.20;34.70
66934;DHT22;53846;51.984;5.890;2022-09-21T12:16:00;26.60;34.70
66934;DHT22;53846;51.984;5.890;2022-09-21T12:18:34;26.70;34.40
66934;DHT22;53846;51.984;5.890;2022-09-21T12:21:12;27.40;33.30
66934;DHT22;53846;51.984;5.890;2022-09-21T12:23:46;27.60;32.70
66934;DHT22;53846;51.984;5.890;2022-09-21T12:26:31;28.20;32.70
66934;DHT22;53846;51.984;5.890;2022-09-21T12:29:09;28.10;32.80
66934;DHT22;53846;51.984;5.890;2022-09-21T12:31:43;28.30;32.60
66934;DHT22;53846;51.984;5.890;2022-09-21T12:34:17;28.30;32.70
66934;DHT22;53846;51.984;5.890;2022-09-21T12:36:55;28.10;33.00
66934;DHT22;53846;51.984;5.890;2022-09-21T12:39:28;27.90;33.10
66934;DHT22;53846;51.984;5.890;2022-09-21T12:42:06;27.60;33.90
66934;DHT22;53846;51.984;5.890;2022-09-21T12:44:43;27.30;33.80
66934;DHT22;53846;51.984;5.890;2022-09-21T12:47:28;26.80;33.90
66934;DHT22;53846;51.984;5.890;2022-09-21T12:50:04;26.80;33.70
66934;DHT22;53846;51.984;5.890;2022-09-21T12:52:35;26.60;34.10
66934;DHT22;53846;51.984;5.890;2022-09-21T12:55:16;26.10;32.90
66934;DHT22;53846;51.984;5.890;2022-09-21T12:57:53;25.70;33.10
66934;DHT22;53846;51.984;5.890;2022-09-21T13:00:33;25.40;33.30
66934;DHT22;53846;51.984;5.890;2022-09-21T13:03:06;25.50;34.10
66934;DHT22;53846;51.984;5.890;2022-09-21T13:05:47;25.00;34.30
66934;DHT22;53846;51.984;5.890;2022-09-21T13:08:24;25.00;34.60
66934;DHT22;53846;51.984;5.890;2022-09-21T13:10:58;25.00;35.40
66934;DHT22;53846;51.984;5.890;2022-09-21T13:13:32;25.30;35.70
66934;DHT22;53846;51.984;5.890;2022-09-21T13:16:05;25.40;35.60
66934;DHT22;53846;51.984;5.890;2022-09-21T13:18:36;25.60;35.70
66934;DHT22;53846;51.984;5.890;2022-09-21T13:21:16;25.80;35.80
66934;DHT22;53846;51.984;5.890;2022-09-21T13:23:52;26.10;35.90
66934;DHT22;53846;51.984;5.890;2022-09-21T13:26:38;26.50;35.60
66934;DHT22;53846;51.984;5.890;2022-09-21T13:29:35;27.10;33.80
66934;DHT22;53846;51.984;5.890;2022-09-21T13:32:24;27.70;33.30
66934;DHT22;53846;51.984;5.890;2022-09-21T13:38:23;28.30;32.10
66934;DHT22;53846;51.984;5.890;2022-09-21T13:40:57;28.50;31.10
66934;DHT22;53846;51.984;5.890;2022-09-21T13:43:59;28.70;31.50
66934;DHT22;53846;51.984;5.890;2022-09-21T13:46:52;29.00;31.00
66934;DHT22;53846;51.984;5.890;2022-09-21T13:49:37;29.00;31.20
66934;DHT22;53846;51.984;5.890;2022-09-21T13:52:21;29.20;31.50
66934;DHT22;53846;51.984;5.890;2022-09-21T13:54:55;29.10;30.40
66934;DHT22;53846;51.984;5.890;2022-09-21T13:57:29;29.40;31.40
66934;DHT22;53846;51.984;5.890;2022-09-21T14:03:20;29.60;30.30
66934;DHT22;53846;51.984;5.890;2022-09-21T14:05:54;29.90;30.10
66934;DHT22;53846;51.984;5.890;2022-09-21T14:08:27;29.70;29.60
66934;DHT22;53846;51.984;5.890;2022-09-21T14:11:01;30.00;29.70
66934;DHT22;53846;51.984;5.890;2022-09-21T14:13:34;29.50;29.60
66934;DHT22;53846;51.984;5.890;2022-09-21T14:22:39;28.80;28.60
66934;DHT22;53846;51.984;5.890;2022-09-21T14:25:26;28.40;29.20
66934;DHT22;53846;51.984;5.890;2022-09-21T14:28:03;28.10;29.60
66934;DHT22;53846;51.984;5.890;2022-09-21T14:30:34;27.90;29.60
66934;DHT22;53846;51.984;5.890;2022-09-21T14:33:24;27.70;29.60
66934;DHT22;53846;51.984;5.890;2022-09-21T14:35:55;27.60;29.40
66934;DHT22;53846;51.984;5.890;2022-09-21T14:38:36;27.30;29.40
66934;DHT22;53846;51.984;5.890;2022-09-21T14:41:07;27.20;29.70
66934;DHT22;53846;51.984;5.890;2022-09-21T14:43:37;27.10;30.10
66934;DHT22;53846;51.984;5.890;2022-09-21T14:46:23;26.40;29.70
66934;DHT22;53846;51.984;5.890;2022-09-21T14:49:06;26.50;30.20
66934;DHT22;53846;51.984;5.890;2022-09-21T14:51:42;26.40;31.00
66934;DHT22;53846;51.984;5.890;2022-09-21T14:54:30;26.00;31.40
66934;DHT22;53846;51.984;5.890;2022-09-21T14:57:15;25.80;31.90
66934;DHT22;53846;51.984;5.890;2022-09-21T14:59:56;25.60;32.30
66934;DHT22;53846;51.984;5.890;2022-09-21T15:02:30;25.40;33.20
66934;DHT22;53846;51.984;5.890;2022-09-21T15:05:11;25.20;33.10
66934;DHT22;53846;51.984;5.890;2022-09-21T15:07:47;25.00;33.10
66934;DHT22;53846;51.984;5.890;2022-09-21T15:10:36;25.00;33.50
66934;DHT22;53846;51.984;5.890;2022-09-21T15:13:45;24.60;33.40
66934;DHT22;53846;51.984;5.890;2022-09-21T15:16:28;24.70;33.60
66934;DHT22;53846;51.984;5.890;2022-09-21T15:19:12;24.50;33.40
66934;DHT22;53846;51.984;5.890;2022-09-21T15:21:44;24.40;33.30
66934;DHT22;53846;51.984;5.890;2022-09-21T15:24:19;24.30;33.40
66934;DHT22;53846;51.984;5.890;2022-09-21T15:26:53;24.10;33.30
66934;DHT22;53846;51.984;5.890;2022-09-21T15:29:30;24.30;34.00
66934;DHT22;53846;51.984;5.890;2022-09-21T15:32:00;23.90;34.60
66934;DHT22;53846;51.984;5.890;2022-09-21T15:34:30;24.00;34.70
66934;DHT22;53846;51.984;5.890;2022-09-21T15:37:07;23.80;35.10
66934;DHT22;53846;51.984;5.890;2022-09-21T15:39:40;23.70;34.70
66934;DHT22;53846;51.984;5.890;2022-09-21T15:42:19;23.50;35.10
66934;DHT22;53846;51.984;5.890;2022-09-21T15:44:49;23.50;35.30
66934;DHT22;53846;51.984;5.890;2022-09-21T15:47:31;23.50;35.60
66934;DHT22;53846;51.984;5.890;2022-09-21T15:50:01;23.40;35.80
66934;DHT22;53846;51.984;5.890;2022-09-21T15:52:33;23.50;36.00
66934;DHT22;53846;51.984;5.890;2022-09-21T15:55:12;23.10;36.20
66934;DHT22;53846;51.984;5.890;2022-09-21T15:57:48;23.20;36.40
66934;DHT22;53846;51.984;5.890;2022-09-21T16:00:23;23.30;36.80
66934;DHT22;53846;51.984;5.890;2022-09-21T16:02:59;23.20;36.80
66934;DHT22;53846;51.984;5.890;2022-09-21T16:05:41;23.30;37.00
66934;DHT22;53846;51.984;5.890;2022-09-21T16:08:26;23.70;36.90
66934;DHT22;53846;51.984;5.890;2022-09-21T16:11:16;23.80;36.70
66934;DHT22;53846;51.984;5.890;2022-09-21T16:13:57;24.10;35.90
66934;DHT22;53846;51.984;5.890;2022-09-21T16:19:39;24.80;36.10
66934;DHT22;53846;51.984;5.890;2022-09-21T16:22:11;25.30;35.20
66934;DHT22;53846;51.984;5.890;2022-09-21T16:24:44;25.40;34.20
66934;DHT22;53846;51.984;5.890;2022-09-21T16:27:17;25.70;34.70
66934;DHT22;53846;51.984;5.890;2022-09-21T16:29:50;25.90;34.50
66934;DHT22;53846;51.984;5.890;2022-09-21T16:32:27;25.90;33.30
66934;DHT22;53846;51.984;5.890;2022-09-21T16:35:20;26.40;33.40